sensor_id;sensor_type;location;lat;lon;timestamp;P1;durP1;ratioP1;P2;durP2;ratioP2
28756;SDS011;44294;48.282;14.282;2022-10-16T00:00:36;7.83;;;4.30;;
28756;SDS011;44294;48.282;14.282;2022-10-16T00:03:24;7.87;;;4.27;;
28756;SDS011;44294;48.282;14.282;2022-10-16T00:06:11;7.47;;;4.47;;
28756;SDS011;44294;48.282;14.282;2022-10-16T00:08:59;9.67;;;4.40;;
28756;SDS011;44294;48.282;14.282;2022-10-16T00:11:46;9.50;;;4.80;;
28756;SDS011;44294;48.282;14.282;2022-10-16T00:14:34;13.00;;;4.90;;
28756;SDS011;44294;48.282;14.282;2022-10-16T00:17:21;7.07;;;5.00;;
28756;SDS011;44294;48.282;14.282;2022-10-16T00:20:08;11.07;;;5.40;;
28756;SDS011;44294;48.282;14.282;2022-10-16T00:22:56;10.40;;;5.30;;
28756;SDS011;44294;48.282;14.282;2022-10-16T00:25:43;9.07;;;5.33;;
28756;SDS011;44294;48.282;14.282;2022-10-16T00:28:31;11.80;;;5.03;;
28756;SDS011;44294;48.282;14.282;2022-10-16T00:31:19;7.13;;;4.80;;
28756;SDS011;44294;48.282;14.282;2022-10-16T00:34:07;17.83;;;5.50;;
28756;SDS011;44294;48.282;14.282;2022-10-16T00:36:54;15.93;;;5.67;;
28756;SDS011;44294;48.282;14.282;2022-10-16T00:39:42;10.40;;;5.80;;
28756;SDS011;44294;48.282;14.282;2022-10-16T00:42:29;10.97;;;6.17;;
28756;SDS011;44294;48.282;14.282;2022-10-16T00:45:16;9.10;;;5.43;;
28756;SDS011;44294;48.282;14.282;2022-10-16T00:48:04;11.50;;;6.23;;
28756;SDS011;44294;48.282;14.282;2022-10-16T00:50:51;9.07;;;5.83;;
28756;SDS011;44294;48.282;14.282;2022-10-16T00:53:39;9.87;;;6.27;;
28756;SDS011;44294;48.282;14.282;2022-10-16T00:56:27;10.27;;;6.30;;
28756;SDS011;44294;48.282;14.282;2022-10-16T00:59:22;12.37;;;6.40;;
28756;SDS011;44294;48.282;14.282;2022-10-16T01:02:11;15.33;;;6.37;;
28756;SDS011;44294;48.282;14.282;2022-10-16T01:04:58;8.47;;;5.97;;
28756;SDS011;44294;48.282;14.282;2022-10-16T01:11:06;9.33;;;6.20;;
28756;SDS011;44294;48.282;14.282;2022-10-16T01:13:53;10.00;;;6.60;;
28756;SDS011;44294;48.282;14.282;2022-10-16T01:16:53;10.47;;;6.60;;
28756;SDS011;44294;48.282;14.282;2022-10-16T01:19:49;9.30;;;6.13;;
28756;SDS011;44294;48.282;14.282;2022-10-16T01:22:43;7.73;;;6.30;;
28756;SDS011;44294;48.282;14.282;2022-10-16T01:25:49;9.03;;;5.97;;
28756;SDS011;44294;48.282;14.282;2022-10-16T01:29:16;9.07;;;6.03;;
28756;SDS011;44294;48.282;14.282;2022-10-16T01:31:18;10.80;;;6.40;;
28756;SDS011;44294;48.282;14.282;2022-10-16T01:34:15;8.53;;;6.63;;
28756;SDS011;44294;48.282;14.282;2022-10-16T01:37:05;7.43;;;6.13;;
28756;SDS011;44294;48.282;14.282;2022-10-16T01:39:53;8.73;;;5.73;;
28756;SDS011;44294;48.282;14.282;2022-10-16T01:42:44;6.70;;;6.00;;
28756;SDS011;44294;48.282;14.282;2022-10-16T01:45:31;9.13;;;6.10;;
28756;SDS011;44294;48.282;14.282;2022-10-16T01:48:19;12.80;;;6.30;;
28756;SDS011;44294;48.282;14.282;2022-10-16T01:51:10;8.63;;;6.10;;
28756;SDS011;44294;48.282;14.282;2022-10-16T01:53:59;9.60;;;6.13;;
28756;SDS011;44294;48.282;14.282;2022-10-16T01:56:48;9.80;;;6.10;;
28756;SDS011;44294;48.282;14.282;2022-10-16T01:59:42;10.07;;;5.53;;
28756;SDS011;44294;48.282;14.282;2022-10-16T02:02:26;11.10;;;5.60;;
28756;SDS011;44294;48.282;14.282;2022-10-16T02:08:20;10.27;;;5.30;;
28756;SDS011;44294;48.282;14.282;2022-10-16T02:11:09;10.43;;;5.80;;
28756;SDS011;44294;48.282;14.282;2022-10-16T02:13:58;10.60;;;5.30;;
28756;SDS011;44294;48.282;14.282;2022-10-16T02:16:46;9.53;;;5.77;;
28756;SDS011;44294;48.282;14.282;2022-10-16T02:19:33;9.23;;;6.37;;
28756;SDS011;44294;48.282;14.282;2022-10-16T02:22:27;10.67;;;5.77;;
28756;SDS011;44294;48.282;14.282;2022-10-16T02:25:17;8.07;;;5.83;;
28756;SDS011;44294;48.282;14.282;2022-10-16T02:28:10;7.80;;;5.47;;
28756;SDS011;44294;48.282;14.282;2022-10-16T02:31:00;8.90;;;6.70;;
28756;SDS011;44294;48.282;14.282;2022-10-16T02:33:47;9.13;;;6.40;;
28756;SDS011;44294;48.282;14.282;2022-10-16T02:36:36;12.57;;;7.93;;
28756;SDS011;44294;48.282;14.282;2022-10-16T02:39:24;9.13;;;6.93;;
28756;SDS011;44294;48.282;14.282;2022-10-16T02:42:13;10.10;;;7.03;;
28756;SDS011;44294;48.282;14.282;2022-10-16T02:45:02;8.80;;;6.83;;
28756;SDS011;44294;48.282;14.282;2022-10-16T02:47:49;10.87;;;7.10;;
28756;SDS011;44294;48.282;14.282;2022-10-16T02:50:37;11.50;;;7.07;;
28756;SDS011;44294;48.282;14.282;2022-10-16T02:53:24;10.37;;;7.07;;
28756;SDS011;44294;48.282;14.282;2022-10-16T02:56:11;10.53;;;6.83;;
28756;SDS011;44294;48.282;14.282;2022-10-16T02:58:59;12.83;;;7.27;;
28756;SDS011;44294;48.282;14.282;2022-10-16T03:01:46;9.60;;;6.83;;
28756;SDS011;44294;48.282;14.282;2022-10-16T03:04:33;10.03;;;6.87;;
28756;SDS011;44294;48.282;14.282;2022-10-16T03:07:21;11.10;;;7.27;;
28756;SDS011;44294;48.282;14.282;2022-10-16T03:10:08;13.73;;;8.10;;
28756;SDS011;44294;48.282;14.282;2022-10-16T03:12:55;13.20;;;7.70;;
28756;SDS011;44294;48.282;14.282;2022-10-16T03:15:43;17.07;;;7.47;;
28756;SDS011;44294;48.282;14.282;2022-10-16T03:18:30;14.63;;;7.40;;
28756;SDS011;44294;48.282;14.282;2022-10-16T03:21:18;16.70;;;7.33;;
28756;SDS011;44294;48.282;14.282;2022-10-16T03:24:05;14.57;;;7.10;;
28756;SDS011;44294;48.282;14.282;2022-10-16T03:26:52;10.83;;;6.77;;
28756;SDS011;44294;48.282;14.282;2022-10-16T03:29:40;13.90;;;7.33;;
28756;SDS011;44294;48.282;14.282;2022-10-16T03:32:27;12.97;;;6.97;;
28756;SDS011;44294;48.282;14.282;2022-10-16T03:35:14;21.40;;;7.57;;
28756;SDS011;44294;48.282;14.282;2022-10-16T03:38:02;9.50;;;7.10;;
28756;SDS011;44294;48.282;14.282;2022-10-16T03:40:49;14.40;;;8.47;;
28756;SDS011;44294;48.282;14.282;2022-10-16T03:43:36;12.90;;;8.03;;
28756;SDS011;44294;48.282;14.282;2022-10-16T03:46:24;14.30;;;7.90;;
28756;SDS011;44294;48.282;14.282;2022-10-16T03:49:11;14.37;;;7.90;;
28756;SDS011;44294;48.282;14.282;2022-10-16T03:51:58;12.23;;;7.57;;
28756;SDS011;44294;48.282;14.282;2022-10-16T03:54:46;17.13;;;7.90;;
28756;SDS011;44294;48.282;14.282;2022-10-16T03:57:33;12.07;;;7.93;;
28756;SDS011;44294;48.282;14.282;2022-10-16T04:00:20;35.97;;;7.90;;
28756;SDS011;44294;48.282;14.282;2022-10-16T04:03:08;17.57;;;7.43;;
28756;SDS011;44294;48.282;14.282;2022-10-16T04:05:55;34.43;;;7.67;;
28756;SDS011;44294;48.282;14.282;2022-10-16T04:08:43;9.23;;;6.87;;
28756;SDS011;44294;48.282;14.282;2022-10-16T04:11:30;9.60;;;6.77;;
28756;SDS011;44294;48.282;14.282;2022-10-16T04:14:18;9.77;;;6.47;;
28756;SDS011;44294;48.282;14.282;2022-10-16T04:17:05;8.17;;;6.20;;
28756;SDS011;44294;48.282;14.282;2022-10-16T04:19:52;6.90;;;5.73;;
28756;SDS011;44294;48.282;14.282;2022-10-16T04:22:39;7.37;;;5.83;;
28756;SDS011;44294;48.282;14.282;2022-10-16T04:25:27;7.13;;;5.67;;
28756;SDS011;44294;48.282;14.282;2022-10-16T04:28:14;6.33;;;5.53;;
28756;SDS011;44294;48.282;14.282;2022-10-16T04:31:04;12.67;;;5.80;;
28756;SDS011;44294;48.282;14.282;2022-10-16T04:33:52;13.30;;;5.50;;
28756;SDS011;44294;48.282;14.282;2022-10-16T04:36:39;11.43;;;5.57;;
28756;SDS011;44294;48.282;14.282;2022-10-16T04:39:26;10.30;;;5.60;;
28756;SDS011;44294;48.282;14.282;2022-10-16T04:42:14;7.13;;;5.63;;
28756;SDS011;44294;48.282;14.282;2022-10-16T04:45:01;6.80;;;5.40;;
28756;SDS011;44294;48.282;14.282;2022-10-16T04:47:48;12.17;;;6.80;;
28756;SDS011;44294;48.282;14.282;2022-10-16T04:50:36;17.63;;;7.40;;
28756;SDS011;44294;48.282;14.282;2022-10-16T04:53:23;15.60;;;7.70;;
28756;SDS011;44294;48.282;14.282;2022-10-16T04:56:10;19.40;;;8.23;;
28756;SDS011;44294;48.282;14.282;2022-10-16T04:58:58;15.47;;;8.73;;
28756;SDS011;44294;48.282;14.282;2022-10-16T05:01:45;18.83;;;8.70;;
28756;SDS011;44294;48.282;14.282;2022-10-16T05:04:32;15.23;;;7.77;;
28756;SDS011;44294;48.282;14.282;2022-10-16T05:07:20;15.83;;;8.67;;
28756;SDS011;44294;48.282;14.282;2022-10-16T05:10:07;12.90;;;8.33;;
28756;SDS011;44294;48.282;14.282;2022-10-16T05:12:54;11.33;;;7.87;;
28756;SDS011;44294;48.282;14.282;2022-10-16T05:15:42;11.73;;;7.90;;
28756;SDS011;44294;48.282;14.282;2022-10-16T05:18:29;15.97;;;8.30;;
28756;SDS011;44294;48.282;14.282;2022-10-16T05:21:16;13.13;;;8.63;;
28756;SDS011;44294;48.282;14.282;2022-10-16T05:24:03;18.47;;;8.33;;
28756;SDS011;44294;48.282;14.282;2022-10-16T05:26:51;11.23;;;7.50;;
28756;SDS011;44294;48.282;14.282;2022-10-16T05:29:38;10.60;;;7.53;;
28756;SDS011;44294;48.282;14.282;2022-10-16T05:32:25;19.60;;;7.83;;
28756;SDS011;44294;48.282;14.282;2022-10-16T05:35:13;10.43;;;7.57;;
28756;SDS011;44294;48.282;14.282;2022-10-16T05:38:00;11.70;;;7.90;;
28756;SDS011;44294;48.282;14.282;2022-10-16T05:40:50;11.27;;;7.50;;
28756;SDS011;44294;48.282;14.282;2022-10-16T05:43:38;11.47;;;7.77;;
28756;SDS011;44294;48.282;14.282;2022-10-16T05:46:26;10.83;;;7.70;;
28756;SDS011;44294;48.282;14.282;2022-10-16T05:49:13;15.30;;;8.50;;
28756;SDS011;44294;48.282;14.282;2022-10-16T05:52:01;18.73;;;8.20;;
28756;SDS011;44294;48.282;14.282;2022-10-16T05:54:48;16.93;;;8.30;;
28756;SDS011;44294;48.282;14.282;2022-10-16T05:57:35;16.90;;;9.33;;
28756;SDS011;44294;48.282;14.282;2022-10-16T06:00:23;16.07;;;8.93;;
28756;SDS011;44294;48.282;14.282;2022-10-16T06:03:10;17.87;;;8.17;;
28756;SDS011;44294;48.282;14.282;2022-10-16T06:05:57;38.00;;;8.93;;
28756;SDS011;44294;48.282;14.282;2022-10-16T06:08:45;20.53;;;8.87;;
28756;SDS011;44294;48.282;14.282;2022-10-16T06:11:32;24.43;;;8.70;;
28756;SDS011;44294;48.282;14.282;2022-10-16T06:14:20;18.13;;;9.60;;
28756;SDS011;44294;48.282;14.282;2022-10-16T06:17:07;20.30;;;9.40;;
28756;SDS011;44294;48.282;14.282;2022-10-16T06:19:54;20.13;;;10.17;;
28756;SDS011;44294;48.282;14.282;2022-10-16T06:22:42;23.00;;;10.83;;
28756;SDS011;44294;48.282;14.282;2022-10-16T06:25:30;27.63;;;13.00;;
28756;SDS011;44294;48.282;14.282;2022-10-16T06:28:17;25.10;;;13.23;;
28756;SDS011;44294;48.282;14.282;2022-10-16T06:31:05;33.13;;;14.77;;
28756;SDS011;44294;48.282;14.282;2022-10-16T06:33:53;35.93;;;15.70;;
28756;SDS011;44294;48.282;14.282;2022-10-16T06:36:40;33.47;;;15.93;;
28756;SDS011;44294;48.282;14.282;2022-10-16T06:39:29;53.90;;;17.23;;
28756;SDS011;44294;48.282;14.282;2022-10-16T06:42:16;33.83;;;15.37;;
28756;SDS011;44294;48.282;14.282;2022-10-16T06:45:04;35.77;;;16.17;;
28756;SDS011;44294;48.282;14.282;2022-10-16T06:47:51;61.83;;;17.23;;
28756;SDS011;44294;48.282;14.282;2022-10-16T06:50:39;32.70;;;16.37;;
28756;SDS011;44294;48.282;14.282;2022-10-16T06:53:27;37.80;;;18.43;;
28756;SDS011;44294;48.282;14.282;2022-10-16T06:56:16;43.87;;;17.93;;
28756;SDS011;44294;48.282;14.282;2022-10-16T06:59:04;37.50;;;18.17;;
28756;SDS011;44294;48.282;14.282;2022-10-16T07:01:51;106.63;;;20.57;;
28756;SDS011;44294;48.282;14.282;2022-10-16T07:04:38;38.17;;;19.13;;
28756;SDS011;44294;48.282;14.282;2022-10-16T07:07:26;41.10;;;18.43;;
28756;SDS011;44294;48.282;14.282;2022-10-16T07:10:13;40.07;;;18.43;;
28756;SDS011;44294;48.282;14.282;2022-10-16T07:13:01;44.73;;;21.30;;
28756;SDS011;44294;48.282;14.282;2022-10-16T07:15:48;41.97;;;21.07;;
28756;SDS011;44294;48.282;14.282;2022-10-16T07:18:35;54.77;;;21.83;;
28756;SDS011;44294;48.282;14.282;2022-10-16T07:21:25;73.53;;;26.37;;
28756;SDS011;44294;48.282;14.282;2022-10-16T07:24:14;64.70;;;26.17;;
28756;SDS011;44294;48.282;14.282;2022-10-16T07:27:01;70.03;;;28.03;;
28756;SDS011;44294;48.282;14.282;2022-10-16T07:29:49;79.80;;;29.33;;
28756;SDS011;44294;48.282;14.282;2022-10-16T07:32:36;94.47;;;29.93;;
28756;SDS011;44294;48.282;14.282;2022-10-16T07:35:24;102.60;;;30.53;;
28756;SDS011;44294;48.282;14.282;2022-10-16T07:38:11;194.80;;;35.67;;
28756;SDS011;44294;48.282;14.282;2022-10-16T07:41:04;211.77;;;38.80;;
28756;SDS011;44294;48.282;14.282;2022-10-16T07:43:48;87.20;;;33.77;;
28756;SDS011;44294;48.282;14.282;2022-10-16T07:46:36;127.43;;;36.77;;
28756;SDS011;44294;48.282;14.282;2022-10-16T07:49:23;137.13;;;34.53;;
28756;SDS011;44294;48.282;14.282;2022-10-16T07:52:11;125.73;;;36.30;;
28756;SDS011;44294;48.282;14.282;2022-10-16T07:54:58;66.53;;;29.13;;
28756;SDS011;44294;48.282;14.282;2022-10-16T07:57:45;58.10;;;27.50;;
28756;SDS011;44294;48.282;14.282;2022-10-16T08:00:33;72.43;;;31.20;;
28756;SDS011;44294;48.282;14.282;2022-10-16T08:03:20;56.77;;;26.50;;
28756;SDS011;44294;48.282;14.282;2022-10-16T08:06:08;42.60;;;23.50;;
28756;SDS011;44294;48.282;14.282;2022-10-16T08:08:55;39.17;;;22.63;;
28756;SDS011;44294;48.282;14.282;2022-10-16T08:11:43;42.97;;;22.70;;
28756;SDS011;44294;48.282;14.282;2022-10-16T08:14:30;46.07;;;25.57;;
28756;SDS011;44294;48.282;14.282;2022-10-16T08:17:17;39.93;;;21.80;;
28756;SDS011;44294;48.282;14.282;2022-10-16T08:20:05;34.30;;;22.10;;
28756;SDS011;44294;48.282;14.282;2022-10-16T08:22:53;34.93;;;22.83;;
28756;SDS011;44294;48.282;14.282;2022-10-16T08:25:41;29.60;;;20.07;;
28756;SDS011;44294;48.282;14.282;2022-10-16T08:28:29;31.87;;;21.33;;
28756;SDS011;44294;48.282;14.282;2022-10-16T08:31:16;27.33;;;17.20;;
28756;SDS011;44294;48.282;14.282;2022-10-16T08:34:04;28.93;;;19.10;;
28756;SDS011;44294;48.282;14.282;2022-10-16T08:36:52;23.80;;;15.80;;
28756;SDS011;44294;48.282;14.282;2022-10-16T08:39:41;21.07;;;13.60;;
28756;SDS011;44294;48.282;14.282;2022-10-16T08:42:35;18.07;;;12.10;;
28756;SDS011;44294;48.282;14.282;2022-10-16T08:45:21;14.13;;;10.43;;
28756;SDS011;44294;48.282;14.282;2022-10-16T08:48:17;14.23;;;9.50;;
28756;SDS011;44294;48.282;14.282;2022-10-16T08:51:03;19.13;;;11.17;;
28756;SDS011;44294;48.282;14.282;2022-10-16T08:53:54;16.93;;;12.00;;
28756;SDS011;44294;48.282;14.282;2022-10-16T08:56:41;14.10;;;8.87;;
28756;SDS011;44294;48.282;14.282;2022-10-16T08:59:28;13.47;;;9.13;;
28756;SDS011;44294;48.282;14.282;2022-10-16T09:05:26;11.63;;;8.30;;
28756;SDS011;44294;48.282;14.282;2022-10-16T09:23:25;14.00;;;7.63;;
28756;SDS011;44294;48.282;14.282;2022-10-16T09:26:16;12.27;;;7.33;;
28756;SDS011;44294;48.282;14.282;2022-10-16T09:29:00;10.77;;;7.03;;
28756;SDS011;44294;48.282;14.282;2022-10-16T09:31:47;14.07;;;7.07;;
28756;SDS011;44294;48.282;14.282;2022-10-16T09:34:35;8.70;;;6.53;;
28756;SDS011;44294;48.282;14.282;2022-10-16T09:37:23;8.80;;;5.40;;
28756;SDS011;44294;48.282;14.282;2022-10-16T09:40:12;9.63;;;5.13;;
28756;SDS011;44294;48.282;14.282;2022-10-16T09:43:12;6.57;;;4.90;;
28756;SDS011;44294;48.282;14.282;2022-10-16T09:45:58;6.77;;;5.03;;
28756;SDS011;44294;48.282;14.282;2022-10-16T09:48:49;7.10;;;5.13;;
28756;SDS011;44294;48.282;14.282;2022-10-16T09:51:37;6.67;;;4.90;;
28756;SDS011;44294;48.282;14.282;2022-10-16T09:54:25;6.53;;;5.20;;
28756;SDS011;44294;48.282;14.282;2022-10-16T09:57:12;10.47;;;5.50;;
28756;SDS011;44294;48.282;14.282;2022-10-16T10:00:00;11.00;;;7.63;;
28756;SDS011;44294;48.282;14.282;2022-10-16T10:02:49;10.73;;;6.43;;
28756;SDS011;44294;48.282;14.282;2022-10-16T10:05:37;8.63;;;5.90;;
28756;SDS011;44294;48.282;14.282;2022-10-16T10:08:25;10.43;;;6.07;;
28756;SDS011;44294;48.282;14.282;2022-10-16T10:11:13;10.17;;;6.10;;
28756;SDS011;44294;48.282;14.282;2022-10-16T10:14:03;10.63;;;6.00;;
28756;SDS011;44294;48.282;14.282;2022-10-16T10:16:52;9.67;;;6.13;;
28756;SDS011;44294;48.282;14.282;2022-10-16T10:19:44;12.87;;;6.37;;
28756;SDS011;44294;48.282;14.282;2022-10-16T10:22:32;9.17;;;5.70;;
28756;SDS011;44294;48.282;14.282;2022-10-16T10:31:20;13.03;;;7.30;;
28756;SDS011;44294;48.282;14.282;2022-10-16T10:37:19;9.93;;;6.00;;
28756;SDS011;44294;48.282;14.282;2022-10-16T10:40:11;9.70;;;5.83;;
28756;SDS011;44294;48.282;14.282;2022-10-16T10:46:04;11.53;;;6.93;;
28756;SDS011;44294;48.282;14.282;2022-10-16T10:51:52;14.60;;;7.73;;
28756;SDS011;44294;48.282;14.282;2022-10-16T11:03:54;14.57;;;7.50;;
28756;SDS011;44294;48.282;14.282;2022-10-16T11:09:44;13.67;;;7.00;;
28756;SDS011;44294;48.282;14.282;2022-10-16T11:12:40;13.90;;;7.83;;
28756;SDS011;44294;48.282;14.282;2022-10-16T11:15:29;12.67;;;7.00;;
28756;SDS011;44294;48.282;14.282;2022-10-16T11:18:21;9.63;;;6.00;;
28756;SDS011;44294;48.282;14.282;2022-10-16T11:21:07;10.07;;;5.60;;
28756;SDS011;44294;48.282;14.282;2022-10-16T11:24:03;12.70;;;4.97;;
28756;SDS011;44294;48.282;14.282;2022-10-16T11:26:49;8.60;;;4.60;;
28756;SDS011;44294;48.282;14.282;2022-10-16T11:29:41;14.60;;;5.30;;
28756;SDS011;44294;48.282;14.282;2022-10-16T11:32:49;7.70;;;4.27;;
28756;SDS011;44294;48.282;14.282;2022-10-16T11:35:35;6.80;;;4.20;;
28756;SDS011;44294;48.282;14.282;2022-10-16T11:53:40;7.43;;;4.30;;
28756;SDS011;44294;48.282;14.282;2022-10-16T11:56:27;8.97;;;4.40;;
28756;SDS011;44294;48.282;14.282;2022-10-16T11:59:24;6.13;;;3.60;;
28756;SDS011;44294;48.282;14.282;2022-10-16T12:02:48;6.47;;;3.40;;
28756;SDS011;44294;48.282;14.282;2022-10-16T12:05:13;6.37;;;3.70;;
28756;SDS011;44294;48.282;14.282;2022-10-16T12:08:15;4.53;;;3.30;;
28756;SDS011;44294;48.282;14.282;2022-10-16T12:17:02;5.10;;;3.10;;
28756;SDS011;44294;48.282;14.282;2022-10-16T12:22:57;3.20;;;2.60;;
28756;SDS011;44294;48.282;14.282;2022-10-16T12:25:53;4.80;;;2.50;;
28756;SDS011;44294;48.282;14.282;2022-10-16T12:28:34;2.90;;;2.63;;
28756;SDS011;44294;48.282;14.282;2022-10-16T12:31:23;5.50;;;3.10;;
28756;SDS011;44294;48.282;14.282;2022-10-16T12:34:24;4.67;;;2.90;;
28756;SDS011;44294;48.282;14.282;2022-10-16T12:37:13;3.90;;;2.90;;
28756;SDS011;44294;48.282;14.282;2022-10-16T12:40:10;4.57;;;2.93;;
28756;SDS011;44294;48.282;14.282;2022-10-16T12:42:49;6.30;;;2.80;;
28756;SDS011;44294;48.282;14.282;2022-10-16T12:45:36;7.27;;;4.00;;
28756;SDS011;44294;48.282;14.282;2022-10-16T12:48:23;4.60;;;3.63;;
28756;SDS011;44294;48.282;14.282;2022-10-16T12:54:37;3.50;;;2.80;;
28756;SDS011;44294;48.282;14.282;2022-10-16T13:00:09;2.90;;;2.60;;
28756;SDS011;44294;48.282;14.282;2022-10-16T13:03:00;6.63;;;2.67;;
28756;SDS011;44294;48.282;14.282;2022-10-16T13:17:47;3.17;;;2.47;;
28756;SDS011;44294;48.282;14.282;2022-10-16T13:20:46;6.00;;;2.53;;
28756;SDS011;44294;48.282;14.282;2022-10-16T13:23:27;2.83;;;1.87;;
28756;SDS011;44294;48.282;14.282;2022-10-16T13:29:05;2.17;;;1.87;;
28756;SDS011;44294;48.282;14.282;2022-10-16T13:31:53;1.90;;;1.80;;
28756;SDS011;44294;48.282;14.282;2022-10-16T13:34:45;3.33;;;1.83;;
28756;SDS011;44294;48.282;14.282;2022-10-16T13:37:33;3.10;;;1.90;;
28756;SDS011;44294;48.282;14.282;2022-10-16T13:40:23;5.43;;;1.80;;
28756;SDS011;44294;48.282;14.282;2022-10-16T13:43:11;4.00;;;1.73;;
28756;SDS011;44294;48.282;14.282;2022-10-16T13:45:59;3.77;;;1.87;;
28756;SDS011;44294;48.282;14.282;2022-10-16T13:48:57;1.90;;;1.70;;
28756;SDS011;44294;48.282;14.282;2022-10-16T13:51:59;2.37;;;1.63;;
28756;SDS011;44294;48.282;14.282;2022-10-16T13:54:43;5.10;;;1.90;;
28756;SDS011;44294;48.282;14.282;2022-10-16T13:57:30;2.80;;;1.60;;
28756;SDS011;44294;48.282;14.282;2022-10-16T14:00:19;3.37;;;1.80;;
28756;SDS011;44294;48.282;14.282;2022-10-16T14:03:11;2.20;;;1.80;;
28756;SDS011;44294;48.282;14.282;2022-10-16T14:05:56;2.33;;;1.67;;
28756;SDS011;44294;48.282;14.282;2022-10-16T14:08:53;2.00;;;1.70;;
28756;SDS011;44294;48.282;14.282;2022-10-16T14:11:37;2.03;;;1.80;;
28756;SDS011;44294;48.282;14.282;2022-10-16T14:14:26;2.10;;;1.90;;
28756;SDS011;44294;48.282;14.282;2022-10-16T14:17:35;2.60;;;1.87;;
28756;SDS011;44294;48.282;14.282;2022-10-16T14:20:04;4.03;;;2.00;;
28756;SDS011;44294;48.282;14.282;2022-10-16T14:23:03;4.20;;;2.97;;
28756;SDS011;44294;48.282;14.282;2022-10-16T14:25:47;4.97;;;3.57;;
28756;SDS011;44294;48.282;14.282;2022-10-16T14:28:37;5.23;;;3.80;;
28756;SDS011;44294;48.282;14.282;2022-10-16T14:31:31;5.40;;;3.53;;
28756;SDS011;44294;48.282;14.282;2022-10-16T14:37:23;3.93;;;2.70;;
28756;SDS011;44294;48.282;14.282;2022-10-16T14:40:14;4.77;;;2.60;;
28756;SDS011;44294;48.282;14.282;2022-10-16T14:43:00;3.97;;;2.20;;
28756;SDS011;44294;48.282;14.282;2022-10-16T14:45:51;3.53;;;2.00;;
28756;SDS011;44294;48.282;14.282;2022-10-16T14:48:40;8.83;;;2.17;;
28756;SDS011;44294;48.282;14.282;2022-10-16T14:51:28;3.90;;;2.30;;
28756;SDS011;44294;48.282;14.282;2022-10-16T14:54:16;4.83;;;2.60;;
28756;SDS011;44294;48.282;14.282;2022-10-16T14:57:04;3.03;;;2.43;;
28756;SDS011;44294;48.282;14.282;2022-10-16T14:59:52;3.57;;;2.97;;
28756;SDS011;44294;48.282;14.282;2022-10-16T15:02:39;8.53;;;4.13;;
28756;SDS011;44294;48.282;14.282;2022-10-16T15:05:26;4.83;;;2.83;;
28756;SDS011;44294;48.282;14.282;2022-10-16T15:08:14;3.43;;;2.30;;
28756;SDS011;44294;48.282;14.282;2022-10-16T15:11:02;4.60;;;2.30;;
28756;SDS011;44294;48.282;14.282;2022-10-16T15:13:50;3.13;;;2.17;;
28756;SDS011;44294;48.282;14.282;2022-10-16T15:16:37;4.47;;;2.77;;
28756;SDS011;44294;48.282;14.282;2022-10-16T15:19:24;5.00;;;3.60;;
28756;SDS011;44294;48.282;14.282;2022-10-16T15:22:12;4.10;;;3.30;;
28756;SDS011;44294;48.282;14.282;2022-10-16T15:24:59;3.83;;;3.30;;
28756;SDS011;44294;48.282;14.282;2022-10-16T15:27:47;4.67;;;2.67;;
28756;SDS011;44294;48.282;14.282;2022-10-16T15:30:34;5.43;;;2.73;;
28756;SDS011;44294;48.282;14.282;2022-10-16T15:33:23;4.43;;;2.87;;
28756;SDS011;44294;48.282;14.282;2022-10-16T15:36:13;6.00;;;2.77;;
28756;SDS011;44294;48.282;14.282;2022-10-16T15:39:00;7.77;;;3.47;;
28756;SDS011;44294;48.282;14.282;2022-10-16T15:41:47;6.13;;;3.10;;
28756;SDS011;44294;48.282;14.282;2022-10-16T15:44:39;5.80;;;2.50;;
28756;SDS011;44294;48.282;14.282;2022-10-16T15:47:26;5.37;;;3.03;;
28756;SDS011;44294;48.282;14.282;2022-10-16T15:50:14;4.83;;;3.10;;
28756;SDS011;44294;48.282;14.282;2022-10-16T15:53:02;7.67;;;3.20;;
28756;SDS011;44294;48.282;14.282;2022-10-16T15:55:49;13.83;;;3.57;;
28756;SDS011;44294;48.282;14.282;2022-10-16T15:58:36;9.33;;;6.20;;
28756;SDS011;44294;48.282;14.282;2022-10-16T16:01:24;7.33;;;4.90;;
28756;SDS011;44294;48.282;14.282;2022-10-16T16:04:11;10.67;;;6.80;;
28756;SDS011;44294;48.282;14.282;2022-10-16T16:06:59;24.27;;;13.40;;
28756;SDS011;44294;48.282;14.282;2022-10-16T16:09:47;18.23;;;10.60;;
28756;SDS011;44294;48.282;14.282;2022-10-16T16:12:34;20.60;;;10.70;;
28756;SDS011;44294;48.282;14.282;2022-10-16T16:15:22;28.27;;;18.50;;
28756;SDS011;44294;48.282;14.282;2022-10-16T16:18:10;104.00;;;64.87;;
28756;SDS011;44294;48.282;14.282;2022-10-16T16:20:57;44.60;;;29.33;;
28756;SDS011;44294;48.282;14.282;2022-10-16T16:23:44;33.43;;;19.20;;
28756;SDS011;44294;48.282;14.282;2022-10-16T16:26:32;37.67;;;23.07;;
28756;SDS011;44294;48.282;14.282;2022-10-16T16:29:21;31.47;;;17.97;;
28756;SDS011;44294;48.282;14.282;2022-10-16T16:32:08;21.90;;;10.40;;
28756;SDS011;44294;48.282;14.282;2022-10-16T16:34:56;11.23;;;6.47;;
28756;SDS011;44294;48.282;14.282;2022-10-16T16:37:43;10.57;;;5.90;;
28756;SDS011;44294;48.282;14.282;2022-10-16T16:40:31;9.37;;;4.73;;
28756;SDS011;44294;48.282;14.282;2022-10-16T16:43:18;10.43;;;5.33;;
28756;SDS011;44294;48.282;14.282;2022-10-16T16:46:06;13.30;;;6.57;;
28756;SDS011;44294;48.282;14.282;2022-10-16T16:48:53;12.00;;;4.83;;
28756;SDS011;44294;48.282;14.282;2022-10-16T16:51:41;7.87;;;4.63;;
28756;SDS011;44294;48.282;14.282;2022-10-16T16:54:28;9.97;;;5.47;;
28756;SDS011;44294;48.282;14.282;2022-10-16T16:57:16;23.13;;;12.07;;
28756;SDS011;44294;48.282;14.282;2022-10-16T17:00:03;26.83;;;13.80;;
28756;SDS011;44294;48.282;14.282;2022-10-16T17:02:51;16.83;;;8.73;;
28756;SDS011;44294;48.282;14.282;2022-10-16T17:05:38;12.17;;;5.80;;
28756;SDS011;44294;48.282;14.282;2022-10-16T17:08:26;15.43;;;4.80;;
28756;SDS011;44294;48.282;14.282;2022-10-16T17:11:14;6.60;;;3.53;;
28756;SDS011;44294;48.282;14.282;2022-10-16T17:14:02;14.33;;;7.30;;
28756;SDS011;44294;48.282;14.282;2022-10-16T17:16:49;12.30;;;8.00;;
28756;SDS011;44294;48.282;14.282;2022-10-16T17:19:38;11.73;;;7.40;;
28756;SDS011;44294;48.282;14.282;2022-10-16T17:22:26;23.87;;;14.17;;
28756;SDS011;44294;48.282;14.282;2022-10-16T17:25:13;25.37;;;13.73;;
28756;SDS011;44294;48.282;14.282;2022-10-16T17:28:00;21.87;;;11.87;;
28756;SDS011;44294;48.282;14.282;2022-10-16T17:30:48;20.07;;;10.37;;
28756;SDS011;44294;48.282;14.282;2022-10-16T17:33:35;12.10;;;6.93;;
28756;SDS011;44294;48.282;14.282;2022-10-16T17:36:22;14.33;;;5.40;;
28756;SDS011;44294;48.282;14.282;2022-10-16T17:39:11;14.73;;;8.60;;
28756;SDS011;44294;48.282;14.282;2022-10-16T17:41:59;12.97;;;7.60;;
28756;SDS011;44294;48.282;14.282;2022-10-16T17:44:46;9.03;;;5.10;;
28756;SDS011;44294;48.282;14.282;2022-10-16T17:47:33;10.43;;;4.50;;
28756;SDS011;44294;48.282;14.282;2022-10-16T17:50:21;8.53;;;4.33;;
28756;SDS011;44294;48.282;14.282;2022-10-16T17:53:09;8.13;;;5.27;;
28756;SDS011;44294;48.282;14.282;2022-10-16T17:55:56;11.53;;;8.33;;
28756;SDS011;44294;48.282;14.282;2022-10-16T17:58:48;9.83;;;6.50;;
28756;SDS011;44294;48.282;14.282;2022-10-16T18:01:37;9.60;;;6.70;;
28756;SDS011;44294;48.282;14.282;2022-10-16T18:04:25;15.93;;;7.20;;
28756;SDS011;44294;48.282;14.282;2022-10-16T18:07:13;11.60;;;7.00;;